sensor_id;sensor_type;location;lat;lon;timestamp;pressure;altitude;pressure_sealevel;temperature;humidity
56604;BME280;42486;47.478;19.036;2023-04-04T00:00:33;100476.34;;;2.01;51.45
56604;BME280;42486;47.478;19.036;2023-04-04T00:03:35;100469.59;;;1.96;51.34
56604;BME280;42486;47.478;19.036;2023-04-04T00:06:40;100473.25;;;1.91;51.62
56604;BME280;42486;47.478;19.036;2023-04-04T00:09:46;100476.72;;;1.90;51.29
56604;BME280;42486;47.478;19.036;2023-04-04T00:12:53;100474.97;;;1.90;52.33
56604;BME280;42486;47.478;19.036;2023-04-04T00:15:57;100478.56;;;1.86;51.99
56604;BME280;42486;47.478;19.036;2023-04-04T00:19:00;100480.38;;;1.84;51.53
56604;BME280;42486;47.478;19.036;2023-04-04T00:22:05;100484.87;;;1.77;52.60
56604;BME280;42486;47.478;19.036;2023-04-04T00:25:09;100483.88;;;1.82;51.06
56604;BME280;42486;47.478;19.036;2023-04-04T00:28:12;100495.97;;;1.80;52.46
56604;BME280;42486;47.478;19.036;2023-04-04T00:31:15;100489.91;;;1.81;53.16
56604;BME280;42486;47.478;19.036;2023-04-04T00:34:19;100486.56;;;1.79;53.61
56604;BME280;42486;47.478;19.036;2023-04-04T00:37:23;100491.19;;;1.69;55.02
56604;BME280;42486;47.478;19.036;2023-04-04T00:40:27;100488.78;;;1.64;53.23
56604;BME280;42486;47.478;19.036;2023-04-04T00:43:30;100485.41;;;1.62;55.09
56604;BME280;42486;47.478;19.036;2023-04-04T00:46:33;100491.41;;;1.63;53.47
56604;BME280;42486;47.478;19.036;2023-04-04T00:49:36;100497.44;;;1.62;53.98
56604;BME280;42486;47.478;19.036;2023-04-04T00:52:40;100482.78;;;1.64;53.10
56604;BME280;42486;47.478;19.036;2023-04-04T00:55:43;100482.78;;;1.64;51.85
56604;BME280;42486;47.478;19.036;2023-04-04T00:58:48;100472.44;;;1.65;53.38
56604;BME280;42486;47.478;19.036;2023-04-04T01:01:51;100474.34;;;1.60;53.16
56604;BME280;42486;47.478;19.036;2023-04-04T01:04:56;100466.88;;;1.52;53.49
56604;BME280;42486;47.478;19.036;2023-04-04T01:07:59;100460.03;;;1.51;53.16
56604;BME280;42486;47.478;19.036;2023-04-04T01:11:03;100454.00;;;1.52;51.86
56604;BME280;42486;47.478;19.036;2023-04-04T01:14:07;100444.56;;;1.51;52.41
56604;BME280;42486;47.478;19.036;2023-04-04T01:17:11;100439.38;;;1.53;51.47
56604;BME280;42486;47.478;19.036;2023-04-04T01:20:14;100442.69;;;1.57;50.91
56604;BME280;42486;47.478;19.036;2023-04-04T01:23:18;100432.47;;;1.55;51.50
56604;BME280;42486;47.478;19.036;2023-04-04T01:26:22;100427.22;;;1.57;51.51
56604;BME280;42486;47.478;19.036;2023-04-04T01:29:26;100425.56;;;1.56;52.37
56604;BME280;42486;47.478;19.036;2023-04-04T01:32:35;100419.44;;;1.60;50.86
56604;BME280;42486;47.478;19.036;2023-04-04T01:41:51;100392.06;;;1.57;51.45
56604;BME280;42486;47.478;19.036;2023-04-04T01:44:55;100398.84;;;1.60;51.75
56604;BME280;42486;47.478;19.036;2023-04-04T01:47:59;100391.94;;;1.60;51.98
56604;BME280;42486;47.478;19.036;2023-04-04T01:51:03;100388.56;;;1.58;52.51
56604;BME280;42486;47.478;19.036;2023-04-04T01:54:07;100382.63;;;1.56;52.36
56604;BME280;42486;47.478;19.036;2023-04-04T01:57:11;100380.00;;;1.58;51.72
56604;BME280;42486;47.478;19.036;2023-04-04T02:00:15;100378.28;;;1.58;52.45
56604;BME280;42486;47.478;19.036;2023-04-04T02:03:19;100366.47;;;1.52;52.00
56604;BME280;42486;47.478;19.036;2023-04-04T02:06:23;100368.97;;;1.54;52.13
56604;BME280;42486;47.478;19.036;2023-04-04T02:09:26;100364.69;;;1.54;52.94
56604;BME280;42486;47.478;19.036;2023-04-04T02:12:29;100356.16;;;1.52;53.04
56604;BME280;42486;47.478;19.036;2023-04-04T02:15:33;100350.34;;;1.47;52.63
56604;BME280;42486;47.478;19.036;2023-04-04T02:18:38;100352.25;;;1.42;53.42
56604;BME280;42486;47.478;19.036;2023-04-04T02:21:42;100341.16;;;1.40;53.12
56604;BME280;42486;47.478;19.036;2023-04-04T02:24:45;100341.31;;;1.36;53.11
56604;BME280;42486;47.478;19.036;2023-04-04T02:27:49;100343.00;;;1.37;53.50
56604;BME280;42486;47.478;19.036;2023-04-04T02:30:59;100327.72;;;1.32;53.08
56604;BME280;42486;47.478;19.036;2023-04-04T02:34:05;100328.75;;;1.28;53.66
56604;BME280;42486;47.478;19.036;2023-04-04T02:37:08;100327.88;;;1.27;54.06
56604;BME280;42486;47.478;19.036;2023-04-04T02:40:12;100332.31;;;1.24;53.61
56604;BME280;42486;47.478;19.036;2023-04-04T02:43:17;100328.00;;;1.24;54.79
56604;BME280;42486;47.478;19.036;2023-04-04T02:46:21;100329.84;;;1.21;54.19
56604;BME280;42486;47.478;19.036;2023-04-04T02:49:24;100333.22;;;1.23;55.03
56604;BME280;42486;47.478;19.036;2023-04-04T02:52:28;100338.34;;;1.23;55.15
56604;BME280;42486;47.478;19.036;2023-04-04T02:55:31;100338.47;;;1.20;54.42
56604;BME280;42486;47.478;19.036;2023-04-04T02:58:36;100343.53;;;1.21;54.37
56604;BME280;42486;47.478;19.036;2023-04-04T03:01:39;100343.81;;;1.14;54.61
56604;BME280;42486;47.478;19.036;2023-04-04T03:04:44;100338.75;;;1.12;54.99
56604;BME280;42486;47.478;19.036;2023-04-04T03:07:52;100345.69;;;1.08;54.75
56604;BME280;42486;47.478;19.036;2023-04-04T03:10:58;100351.75;;;1.07;54.94
56604;BME280;42486;47.478;19.036;2023-04-04T03:14:02;100349.22;;;1.06;55.22
56604;BME280;42486;47.478;19.036;2023-04-04T03:17:06;100351.78;;;1.06;55.52
56604;BME280;42486;47.478;19.036;2023-04-04T03:20:13;100348.44;;;1.04;55.39
56604;BME280;42486;47.478;19.036;2023-04-04T03:23:17;100350.00;;;1.08;57.86
56604;BME280;42486;47.478;19.036;2023-04-04T03:26:20;100351.97;;;1.01;56.37
56604;BME280;42486;47.478;19.036;2023-04-04T03:29:24;100346.03;;;0.99;56.54
56604;BME280;42486;47.478;19.036;2023-04-04T03:32:27;100353.75;;;0.99;56.03
56604;BME280;42486;47.478;19.036;2023-04-04T03:35:36;100356.53;;;0.93;55.80
56604;BME280;42486;47.478;19.036;2023-04-04T03:38:40;100356.44;;;0.96;55.63
56604;BME280;42486;47.478;19.036;2023-04-04T03:41:43;100364.16;;;0.96;55.72
56604;BME280;42486;47.478;19.036;2023-04-04T03:44:48;100365.81;;;0.97;55.37
56604;BME280;42486;47.478;19.036;2023-04-04T03:47:51;100364.19;;;0.95;55.37
56604;BME280;42486;47.478;19.036;2023-04-04T03:50:55;100360.62;;;0.99;57.07
56604;BME280;42486;47.478;19.036;2023-04-04T03:53:59;100369.13;;;1.01;56.87
56604;BME280;42486;47.478;19.036;2023-04-04T03:57:02;100367.44;;;1.00;56.07
56604;BME280;42486;47.478;19.036;2023-04-04T04:00:07;100372.84;;;0.92;56.74
56604;BME280;42486;47.478;19.036;2023-04-04T04:03:11;100366.91;;;0.90;56.45
56604;BME280;42486;47.478;19.036;2023-04-04T04:06:17;100356.47;;;0.95;56.15
56604;BME280;42486;47.478;19.036;2023-04-04T04:09:21;100359.03;;;0.95;56.16
56604;BME280;42486;47.478;19.036;2023-04-04T04:12:25;100348.81;;;0.93;55.88
56604;BME280;42486;47.478;19.036;2023-04-04T04:15:29;100347.09;;;0.94;56.20
56604;BME280;42486;47.478;19.036;2023-04-04T04:18:35;100353.91;;;0.95;56.20
56604;BME280;42486;47.478;19.036;2023-04-04T04:21:40;100351.06;;;1.02;57.00
56604;BME280;42486;47.478;19.036;2023-04-04T04:24:44;100347.00;;;0.95;56.65
56604;BME280;42486;47.478;19.036;2023-04-04T04:27:47;100347.19;;;0.91;59.07
56604;BME280;42486;47.478;19.036;2023-04-04T04:30:52;100350.53;;;0.93;59.64
56604;BME280;42486;47.478;19.036;2023-04-04T04:33:56;100343.72;;;0.92;57.92
56604;BME280;42486;47.478;19.036;2023-04-04T04:37:00;100340.34;;;0.90;58.78
56604;BME280;42486;47.478;19.036;2023-04-04T04:40:03;100332.75;;;0.86;58.53
56604;BME280;42486;47.478;19.036;2023-04-04T04:43:07;100345.56;;;0.88;58.17
56604;BME280;42486;47.478;19.036;2023-04-04T04:46:11;100339.78;;;0.81;57.18
56604;BME280;42486;47.478;19.036;2023-04-04T04:49:16;100337.94;;;0.85;57.36
56604;BME280;42486;47.478;19.036;2023-04-04T04:52:20;100344.69;;;0.87;58.71
56604;BME280;42486;47.478;19.036;2023-04-04T04:55:23;100347.09;;;0.94;57.30
56604;BME280;42486;47.478;19.036;2023-04-04T04:58:27;100341.84;;;0.97;57.06
56604;BME280;42486;47.478;19.036;2023-04-04T05:01:31;100345.69;;;1.08;57.74
56604;BME280;42486;47.478;19.036;2023-04-04T05:04:36;100347.06;;;1.19;57.16
56604;BME280;42486;47.478;19.036;2023-04-04T05:07:43;100346.75;;;1.28;56.95
56604;BME280;42486;47.478;19.036;2023-04-04T05:10:48;100338.41;;;1.21;56.19
56604;BME280;42486;47.478;19.036;2023-04-04T05:13:52;100338.91;;;1.31;56.53
56604;BME280;42486;47.478;19.036;2023-04-04T05:16:55;100338.13;;;1.29;56.01
56604;BME280;42486;47.478;19.036;2023-04-04T05:19:59;100334.34;;;1.39;56.72
56604;BME280;42486;47.478;19.036;2023-04-04T05:23:04;100336.75;;;1.44;54.84
56604;BME280;42486;47.478;19.036;2023-04-04T05:26:08;100336.38;;;1.54;55.27
56604;BME280;42486;47.478;19.036;2023-04-04T05:29:12;100337.19;;;1.55;54.80
56604;BME280;42486;47.478;19.036;2023-04-04T05:32:15;100349.28;;;1.53;54.33
56604;BME280;42486;47.478;19.036;2023-04-04T05:35:18;100347.91;;;1.68;53.85
56604;BME280;42486;47.478;19.036;2023-04-04T05:38:21;100352.00;;;1.72;53.96
56604;BME280;42486;47.478;19.036;2023-04-04T05:41:25;100356.78;;;2.05;52.98
56604;BME280;42486;47.478;19.036;2023-04-04T05:44:33;100354.69;;;2.14;52.90
56604;BME280;42486;47.478;19.036;2023-04-04T05:47:36;100352.84;;;2.40;53.12
56604;BME280;42486;47.478;19.036;2023-04-04T05:50:43;100365.97;;;2.56;50.21
56604;BME280;42486;47.478;19.036;2023-04-04T05:53:47;100353.94;;;2.97;50.38
56604;BME280;42486;47.478;19.036;2023-04-04T05:56:50;100360.28;;;4.26;47.87
56604;BME280;42486;47.478;19.036;2023-04-04T05:59:54;100364.50;;;4.80;46.42
56604;BME280;42486;47.478;19.036;2023-04-04T06:02:57;100370.53;;;4.98;43.09
56604;BME280;42486;47.478;19.036;2023-04-04T06:06:01;100374.09;;;5.80;41.77
56604;BME280;42486;47.478;19.036;2023-04-04T06:09:07;100379.31;;;6.43;40.36
56604;BME280;42486;47.478;19.036;2023-04-04T06:12:11;100372.09;;;6.48;39.79
56604;BME280;42486;47.478;19.036;2023-04-04T06:15:14;100378.56;;;6.87;39.21
56604;BME280;42486;47.478;19.036;2023-04-04T06:18:17;100382.59;;;5.99;40.37
56604;BME280;42486;47.478;19.036;2023-04-04T06:21:21;100382.91;;;6.09;40.31
56604;BME280;42486;47.478;19.036;2023-04-04T06:24:24;100385.38;;;6.12;39.84
56604;BME280;42486;47.478;19.036;2023-04-04T06:27:27;100386.19;;;6.74;39.51
56604;BME280;42486;47.478;19.036;2023-04-04T06:30:34;100386.22;;;6.89;39.13
56604;BME280;42486;47.478;19.036;2023-04-04T06:33:37;100369.72;;;7.34;38.59
56604;BME280;42486;47.478;19.036;2023-04-04T06:36:40;100361.97;;;8.04;36.87
56604;BME280;42486;47.478;19.036;2023-04-04T06:39:43;100347.06;;;8.48;36.73
56604;BME280;42486;47.478;19.036;2023-04-04T06:42:47;100346.44;;;9.35;34.25
56604;BME280;42486;47.478;19.036;2023-04-04T06:45:51;100337.47;;;8.48;34.64
56604;BME280;42486;47.478;19.036;2023-04-04T06:48:54;100341.97;;;8.05;37.05
56604;BME280;42486;47.478;19.036;2023-04-04T06:51:58;100329.50;;;6.52;38.17
56604;BME280;42486;47.478;19.036;2023-04-04T06:55:02;100329.78;;;6.92;38.86
56604;BME280;42486;47.478;19.036;2023-04-04T06:58:06;100331.34;;;6.34;39.89
56604;BME280;42486;47.478;19.036;2023-04-04T07:01:09;100342.88;;;7.05;37.97
56604;BME280;42486;47.478;19.036;2023-04-04T07:04:17;100337.38;;;7.10;39.30
56604;BME280;42486;47.478;19.036;2023-04-04T07:07:20;100345.28;;;7.22;38.17
56604;BME280;42486;47.478;19.036;2023-04-04T07:10:23;100346.50;;;7.31;37.96
56604;BME280;42486;47.478;19.036;2023-04-04T07:13:27;100351.63;;;6.74;40.23
56604;BME280;42486;47.478;19.036;2023-04-04T07:16:31;100352.06;;;6.20;40.90
56604;BME280;42486;47.478;19.036;2023-04-04T07:19:34;100354.25;;;5.63;40.87
56604;BME280;42486;47.478;19.036;2023-04-04T07:22:38;100360.94;;;4.83;43.34
56604;BME280;42486;47.478;19.036;2023-04-04T07:25:41;100355.91;;;4.62;44.45
56604;BME280;42486;47.478;19.036;2023-04-04T07:28:45;100354.75;;;4.14;44.47
56604;BME280;42486;47.478;19.036;2023-04-04T07:31:49;100358.75;;;4.03;45.35
56604;BME280;42486;47.478;19.036;2023-04-04T07:34:53;100369.75;;;3.89;45.11
56604;BME280;42486;47.478;19.036;2023-04-04T07:37:57;100351.84;;;4.39;44.80
56604;BME280;42486;47.478;19.036;2023-04-04T07:41:01;100355.56;;;6.03;41.42
56604;BME280;42486;47.478;19.036;2023-04-04T07:44:05;100361.84;;;7.64;39.73
56604;BME280;42486;47.478;19.036;2023-04-04T07:47:09;100370.62;;;7.33;38.07
56604;BME280;42486;47.478;19.036;2023-04-04T07:50:13;100355.94;;;6.89;39.68
56604;BME280;42486;47.478;19.036;2023-04-04T07:53:18;100364.50;;;6.29;40.38
56604;BME280;42486;47.478;19.036;2023-04-04T07:56:21;100363.03;;;6.09;40.52
56604;BME280;42486;47.478;19.036;2023-04-04T07:59:24;100353.22;;;5.83;41.35
56604;BME280;42486;47.478;19.036;2023-04-04T08:02:27;100364.44;;;5.99;41.60
56604;BME280;42486;47.478;19.036;2023-04-04T08:05:30;100362.63;;;6.17;40.38
56604;BME280;42486;47.478;19.036;2023-04-04T08:08:34;100378.00;;;6.04;39.89
56604;BME280;42486;47.478;19.036;2023-04-04T08:11:37;100353.03;;;5.86;40.39
56604;BME280;42486;47.478;19.036;2023-04-04T08:14:43;100352.50;;;5.79;41.70
56604;BME280;42486;47.478;19.036;2023-04-04T08:17:46;100343.44;;;5.39;41.62
56604;BME280;42486;47.478;19.036;2023-04-04T08:20:50;100358.53;;;5.13;42.09
56604;BME280;42486;47.478;19.036;2023-04-04T08:23:53;100376.44;;;5.84;40.70
56604;BME280;42486;47.478;19.036;2023-04-04T08:26:57;100365.84;;;5.89;40.14
56604;BME280;42486;47.478;19.036;2023-04-04T08:30:06;100367.13;;;6.13;41.65
56604;BME280;42486;47.478;19.036;2023-04-04T08:33:10;100359.72;;;6.37;40.71
56604;BME280;42486;47.478;19.036;2023-04-04T08:36:14;100368.06;;;6.58;38.64
56604;BME280;42486;47.478;19.036;2023-04-04T08:39:17;100365.75;;;6.38;39.69
56604;BME280;42486;47.478;19.036;2023-04-04T08:42:20;100373.28;;;6.27;40.55
56604;BME280;42486;47.478;19.036;2023-04-04T08:45:25;100358.97;;;5.39;40.68
56604;BME280;42486;47.478;19.036;2023-04-04T08:48:29;100344.28;;;5.55;40.31
56604;BME280;42486;47.478;19.036;2023-04-04T08:51:34;100347.31;;;5.97;40.93
56604;BME280;42486;47.478;19.036;2023-04-04T08:54:39;100352.25;;;6.17;39.02
56604;BME280;42486;47.478;19.036;2023-04-04T08:57:45;100346.53;;;5.94;40.14
56604;BME280;42486;47.478;19.036;2023-04-04T09:00:50;100335.53;;;6.37;39.98
56604;BME280;42486;47.478;19.036;2023-04-04T09:03:55;100332.91;;;6.53;39.24
56604;BME280;42486;47.478;19.036;2023-04-04T09:06:58;100329.28;;;6.41;39.98
56604;BME280;42486;47.478;19.036;2023-04-04T09:10:07;100340.91;;;6.64;38.83
56604;BME280;42486;47.478;19.036;2023-04-04T09:13:10;100345.37;;;6.46;37.98
56604;BME280;42486;47.478;19.036;2023-04-04T09:16:18;100336.09;;;6.12;39.15
56604;BME280;42486;47.478;19.036;2023-04-04T09:19:21;100338.13;;;6.37;38.97
56604;BME280;42486;47.478;19.036;2023-04-04T09:22:27;100339.00;;;6.22;39.62
56604;BME280;42486;47.478;19.036;2023-04-04T09:25:30;100340.97;;;6.78;39.03
56604;BME280;42486;47.478;19.036;2023-04-04T09:28:33;100343.03;;;6.57;38.75
56604;BME280;42486;47.478;19.036;2023-04-04T09:31:37;100333.00;;;6.81;38.91
56604;BME280;42486;47.478;19.036;2023-04-04T09:34:42;100354.59;;;6.82;38.10
56604;BME280;42486;47.478;19.036;2023-04-04T09:37:46;100342.41;;;5.74;39.84
56604;BME280;42486;47.478;19.036;2023-04-04T09:40:50;100332.78;;;5.77;40.43
56604;BME280;42486;47.478;19.036;2023-04-04T09:43:56;100330.62;;;6.16;39.69
56604;BME280;42486;47.478;19.036;2023-04-04T09:47:33;100343.66;;;6.77;39.30
56604;BME280;42486;47.478;19.036;2023-04-04T09:50:32;100337.38;;;6.95;38.76
56604;BME280;42486;47.478;19.036;2023-04-04T09:53:35;100325.81;;;7.30;38.12
56604;BME280;42486;47.478;19.036;2023-04-04T09:56:41;100324.91;;;6.72;37.91
56604;BME280;42486;47.478;19.036;2023-04-04T09:59:45;100316.66;;;6.65;38.48
56604;BME280;42486;47.478;19.036;2023-04-04T10:02:50;100331.56;;;7.20;38.17
56604;BME280;42486;47.478;19.036;2023-04-04T10:06:01;100333.06;;;6.80;38.49
56604;BME280;42486;47.478;19.036;2023-04-04T10:09:08;100333.75;;;6.83;39.01
56604;BME280;42486;47.478;19.036;2023-04-04T10:12:11;100328.13;;;7.20;37.68
56604;BME280;42486;47.478;19.036;2023-04-04T10:15:15;100333.81;;;7.26;38.21
56604;BME280;42486;47.478;19.036;2023-04-04T10:18:27;100332.41;;;7.64;36.77
56604;BME280;42486;47.478;19.036;2023-04-04T10:21:31;100335.84;;;7.36;36.46
56604;BME280;42486;47.478;19.036;2023-04-04T10:24:34;100317.00;;;7.46;36.61
56604;BME280;42486;47.478;19.036;2023-04-04T10:27:37;100310.69;;;7.22;37.05
56604;BME280;42486;47.478;19.036;2023-04-04T10:30:41;100311.53;;;7.22;37.55
56604;BME280;42486;47.478;19.036;2023-04-04T10:34:20;100307.87;;;7.68;36.63
56604;BME280;42486;47.478;19.036;2023-04-04T10:37:30;100300.38;;;7.20;36.81
56604;BME280;42486;47.478;19.036;2023-04-04T10:40:35;100293.25;;;7.24;37.18
56604;BME280;42486;47.478;19.036;2023-04-04T10:43:41;100293.31;;;7.51;37.60
56604;BME280;42486;47.478;19.036;2023-04-04T10:46:47;100299.59;;;8.03;35.54
56604;BME280;42486;47.478;19.036;2023-04-04T10:49:54;100296.66;;;8.22;35.36
56604;BME280;42486;47.478;19.036;2023-04-04T10:52:58;100306.69;;;8.55;34.40
56604;BME280;42486;47.478;19.036;2023-04-04T10:56:03;100304.56;;;8.20;36.18
56604;BME280;42486;47.478;19.036;2023-04-04T10:59:15;100306.41;;;8.72;34.40
56604;BME280;42486;47.478;19.036;2023-04-04T11:02:55;100297.50;;;8.49;36.10
56604;BME280;42486;47.478;19.036;2023-04-04T11:05:54;100297.97;;;8.81;33.69
56604;BME280;42486;47.478;19.036;2023-04-04T11:09:03;100301.72;;;8.90;34.33
56604;BME280;42486;47.478;19.036;2023-04-04T11:12:08;100291.81;;;8.95;33.93
56604;BME280;42486;47.478;19.036;2023-04-04T11:15:15;100285.25;;;9.02;33.51
56604;BME280;42486;47.478;19.036;2023-04-04T11:21:43;100285.94;;;8.53;33.48
56604;BME280;42486;47.478;19.036;2023-04-04T11:24:47;100276.91;;;8.85;33.77
56604;BME280;42486;47.478;19.036;2023-04-04T11:27:54;100287.22;;;8.73;34.95
56604;BME280;42486;47.478;19.036;2023-04-04T11:34:29;100276.69;;;9.13;33.53
56604;BME280;42486;47.478;19.036;2023-04-04T11:37:32;100273.84;;;9.42;35.23
56604;BME280;42486;47.478;19.036;2023-04-04T11:40:51;100275.13;;;9.36;32.40
56604;BME280;42486;47.478;19.036;2023-04-04T11:43:54;100261.47;;;9.69;33.57
56604;BME280;42486;47.478;19.036;2023-04-04T11:47:08;100264.16;;;9.68;32.08
56604;BME280;42486;47.478;19.036;2023-04-04T11:50:12;100248.41;;;9.69;32.58
56604;BME280;42486;47.478;19.036;2023-04-04T11:53:15;100243.81;;;9.73;37.41
56604;BME280;42486;47.478;19.036;2023-04-04T11:56:18;100256.44;;;10.03;32.75
56604;BME280;42486;47.478;19.036;2023-04-04T11:59:21;100252.81;;;9.69;33.58
56604;BME280;42486;47.478;19.036;2023-04-04T12:02:25;100255.88;;;9.63;33.59
56604;BME280;42486;47.478;19.036;2023-04-04T12:05:39;100240.09;;;9.88;33.11
56604;BME280;42486;47.478;19.036;2023-04-04T12:08:42;100233.75;;;9.56;33.15
56604;BME280;42486;47.478;19.036;2023-04-04T12:11:45;100240.13;;;9.52;33.17
56604;BME280;42486;47.478;19.036;2023-04-04T12:14:48;100224.06;;;9.82;33.65
56604;BME280;42486;47.478;19.036;2023-04-04T12:17:51;100227.00;;;9.77;34.45
56604;BME280;42486;47.478;19.036;2023-04-04T12:20:55;100225.03;;;9.68;32.65
56604;BME280;42486;47.478;19.036;2023-04-04T12:23:58;100212.72;;;9.46;32.85
56604;BME280;42486;47.478;19.036;2023-04-04T12:27:01;100207.91;;;9.53;32.90
56604;BME280;42486;47.478;19.036;2023-04-04T12:30:05;100220.69;;;9.32;34.30
56604;BME280;42486;47.478;19.036;2023-04-04T12:33:12;100208.50;;;9.80;34.56
56604;BME280;42486;47.478;19.036;2023-04-04T12:36:15;100208.34;;;9.10;33.97
56604;BME280;42486;47.478;19.036;2023-04-04T12:39:18;100203.31;;;9.43;33.34
56604;BME280;42486;47.478;19.036;2023-04-04T12:42:22;100203.03;;;9.72;33.50
56604;BME280;42486;47.478;19.036;2023-04-04T12:45:25;100198.84;;;9.69;33.27
56604;BME280;42486;47.478;19.036;2023-04-04T12:48:29;100199.72;;;10.05;35.51
56604;BME280;42486;47.478;19.036;2023-04-04T12:51:34;100200.84;;;9.90;33.80
56604;BME280;42486;47.478;19.036;2023-04-04T12:54:39;100202.78;;;9.51;32.84
56604;BME280;42486;47.478;19.036;2023-04-04T12:57:43;100199.13;;;9.04;33.40
56604;BME280;42486;47.478;19.036;2023-04-04T13:00:52;100190.44;;;9.66;34.03
56604;BME280;42486;47.478;19.036;2023-04-04T13:03:54;100187.03;;;9.77;33.78
56604;BME280;42486;47.478;19.036;2023-04-04T13:06:57;100197.13;;;9.57;32.59
56604;BME280;42486;47.478;19.036;2023-04-04T13:10:00;100185.16;;;9.79;32.91
56604;BME280;42486;47.478;19.036;2023-04-04T13:13:28;100186.00;;;9.55;34.21
56604;BME280;42486;47.478;19.036;2023-04-04T13:16:32;100196.28;;;9.81;32.08
56604;BME280;42486;47.478;19.036;2023-04-04T13:19:36;100182.25;;;9.70;32.56
56604;BME280;42486;47.478;19.036;2023-04-04T13:22:39;100175.34;;;9.58;32.94
56604;BME280;42486;47.478;19.036;2023-04-04T13:25:42;100183.47;;;9.54;32.43
56604;BME280;42486;47.478;19.036;2023-04-04T13:28:50;100171.19;;;9.91;33.67
56604;BME280;42486;47.478;19.036;2023-04-04T13:31:53;100174.88;;;10.00;32.49
56604;BME280;42486;47.478;19.036;2023-04-04T13:35:00;100174.47;;;10.06;32.10
56604;BME280;42486;47.478;19.036;2023-04-04T13:38:03;100174.72;;;10.14;31.55
56604;BME280;42486;47.478;19.036;2023-04-04T13:41:06;100174.47;;;10.06;31.52
56604;BME280;42486;47.478;19.036;2023-04-04T13:44:14;100183.47;;;10.13;31.36
56604;BME280;42486;47.478;19.036;2023-04-04T13:47:17;100178.53;;;9.86;31.97
56604;BME280;42486;47.478;19.036;2023-04-04T13:50:20;100171.53;;;9.62;31.70
56604;BME280;42486;47.478;19.036;2023-04-04T13:53:24;100175.34;;;9.58;32.14
56604;BME280;42486;47.478;19.036;2023-04-04T13:56:27;100180.13;;;9.76;32.59
56604;BME280;42486;47.478;19.036;2023-04-04T13:59:30;100162.09;;;9.73;31.16
56604;BME280;42486;47.478;19.036;2023-04-04T14:02:33;100168.22;;;9.60;33.15
56604;BME280;42486;47.478;19.036;2023-04-04T14:05:36;100173.31;;;9.86;31.86
56604;BME280;42486;47.478;19.036;2023-04-04T14:08:39;100162.03;;;9.85;31.06
56604;BME280;42486;47.478;19.036;2023-04-04T14:11:41;100163.69;;;9.86;31.77
56604;BME280;42486;47.478;19.036;2023-04-04T14:14:44;100173.22;;;9.87;31.64
56604;BME280;42486;47.478;19.036;2023-04-04T14:17:47;100163.38;;;9.91;32.35
56604;BME280;42486;47.478;19.036;2023-04-04T14:20:49;100169.81;;;9.98;30.50
56604;BME280;42486;47.478;19.036;2023-04-04T14:23:52;100167.56;;;9.69;31.53
56604;BME280;42486;47.478;19.036;2023-04-04T14:26:55;100163.13;;;9.59;34.71
56604;BME280;42486;47.478;19.036;2023-04-04T14:29:58;100168.72;;;9.89;32.57
56604;BME280;42486;47.478;19.036;2023-04-04T14:33:02;100170.44;;;9.78;32.63
56604;BME280;42486;47.478;19.036;2023-04-04T14:36:04;100171.38;;;9.77;31.11
56604;BME280;42486;47.478;19.036;2023-04-04T14:39:07;100172.87;;;9.68;32.15
56604;BME280;42486;47.478;19.036;2023-04-04T14:42:10;100175.09;;;9.61;33.01
56604;BME280;42486;47.478;19.036;2023-04-04T14:45:13;100165.69;;;9.47;31.41
56604;BME280;42486;47.478;19.036;2023-04-04T14:48:15;100183.09;;;9.10;32.61
56604;BME280;42486;47.478;19.036;2023-04-04T14:51:18;100180.06;;;9.03;33.73
56604;BME280;42486;47.478;19.036;2023-04-04T14:54:21;100176.00;;;9.12;33.27
56604;BME280;42486;47.478;19.036;2023-04-04T14:57:23;100171.78;;;9.22;34.14
56604;BME280;42486;47.478;19.036;2023-04-04T15:00:26;100167.31;;;9.24;34.96
56604;BME280;42486;47.478;19.036;2023-04-04T15:03:29;100169.81;;;9.26;33.86
56604;BME280;42486;47.478;19.036;2023-04-04T15:06:31;100170.09;;;9.34;32.61
56604;BME280;42486;47.478;19.036;2023-04-04T15:09:37;100170.97;;;9.46;32.21
56604;BME280;42486;47.478;19.036;2023-04-04T15:12:40;100179.34;;;9.38;33.73
56604;BME280;42486;47.478;19.036;2023-04-04T15:15:43;100175.63;;;9.30;34.01
56604;BME280;42486;47.478;19.036;2023-04-04T15:18:46;100174.88;;;9.40;33.98
56604;BME280;42486;47.478;19.036;2023-04-04T15:21:48;100180.25;;;9.26;32.59
56604;BME280;42486;47.478;19.036;2023-04-04T15:24:51;100183.19;;;9.09;32.78
56604;BME280;42486;47.478;19.036;2023-04-04T15:27:56;100188.53;;;8.94;33.52
56604;BME280;42486;47.478;19.036;2023-04-04T15:30:59;100188.25;;;8.86;35.31
56604;BME280;42486;47.478;19.036;2023-04-04T15:34:03;100196.87;;;8.87;34.83
56604;BME280;42486;47.478;19.036;2023-04-04T15:37:06;100194.41;;;8.72;34.20
56604;BME280;42486;47.478;19.036;2023-04-04T15:40:11;100197.84;;;8.60;33.69
56604;BME280;42486;47.478;19.036;2023-04-04T15:43:14;100190.31;;;8.43;34.72
56604;BME280;42486;47.478;19.036;2023-04-04T15:46:17;100192.63;;;8.47;35.67
56604;BME280;42486;47.478;19.036;2023-04-04T15:49:20;100206.37;;;8.49;34.88
56604;BME280;42486;47.478;19.036;2023-04-04T15:52:23;100202.94;;;8.49;35.57
56604;BME280;42486;47.478;19.036;2023-04-04T15:55:26;100203.97;;;8.46;36.97
56604;BME280;42486;47.478;19.036;2023-04-04T15:58:29;100204.75;;;8.34;37.37
56604;BME280;42486;47.478;19.036;2023-04-04T16:01:33;100209.84;;;8.23;34.56
56604;BME280;42486;47.478;19.036;2023-04-04T16:04:36;100214.78;;;8.00;34.91
56604;BME280;42486;47.478;19.036;2023-04-04T16:07:39;100207.59;;;7.91;35.72
56604;BME280;42486;47.478;19.036;2023-04-04T16:10:42;100216.37;;;7.76;36.50
56604;BME280;42486;47.478;19.036;2023-04-04T16:13:46;100216.72;;;7.84;37.46
56604;BME280;42486;47.478;19.036;2023-04-04T16:16:49;100231.16;;;7.75;37.40